EGNM/LBA METAR and TAF weather

Enter ICAO airport designator
Station Type Date Time Source
EGNM METAR 2021/07/29 01:20 UTC NOAA

EGNM 290120Z 24012KT 9999 -SHRA SCT012 12/11 Q1002


Station Type Date Time Source
EGNM Decoded METAR 2021/07/29 01:20 UTC NOAA

Leeds And Bradford, United Kingdom (EGNM) 53-52N 001-39W
Jul 28, 2021 - 09:20 PM EDT / 2021.07.29 0120 UTC
Wind: from the WSW (240 degrees) at 14 MPH (12 KT):0
Visibility: greater than 7 mile(s):0
Sky conditions: partly cloudy
Weather: light rain showers
Temperature: 53 F (12 C)
Dew Point: 51 F (11 C)
Relative Humidity: 93%
Pressure (altimeter): 29.59 in. Hg (1002 hPa)
ob: EGNM 290120Z 24012KT 9999 -SHRA SCT012 12/11 Q1002
cycle: 1

Station Type Date Time Source
EGNM TAF 2021/07/28 20:11 UTC NOAA

TAF
AMD EGNM 282004Z 2820/2918 22008KT 9999 SCT025
TEMPO 2820/2907 6000 SHRA PROB30
TEMPO 2820/2822 VRB15G25KT 3000 +SHRAGS TS BKN014 BKN025CB PROB30
TEMPO 2822/2904 VRB15G25KT 3000 +SHRA BKN014 BKN025CB
BECMG 2908/2911 25018G28KT PROB30
TEMPO 2909/2918 7000 -RA

Example: see airport list